SWR2LF LOWW-LFLL
Flight info
| Callsign | SWR2LF |
|---|---|
| Flight time | 1h 24m |
| Altitude | 36000 |
| Route | OSPEN DCT DETSA M984 NAXAV DCT RESIA DCT PELAD Z119 ESEVA Z669 MILPA |
| Aircraft | B77W/H-VGDW/C |
Departure
| Time | 2026-05-05 18:16 |
|---|---|
| Airport | Vienna International Airport (LOWW) |
Arrival
| Time | 2026-05-05 19:40 |
|---|---|
| Airport | Lyon Saint-Exupéry Airport (LFLL) |
| Time | Latitude | Longitude | Altitude | Speed | Heading |
|---|---|---|---|---|---|
| 2026-05-05 17:53 | 48.11857 | 16.55988 | 615 ft | 0 kts | 124° |
| 2026-05-05 18:04 | 48.11859 | 16.55984 | 615 ft | 1 kts | 124° |
| 2026-05-05 18:04 | 48.11863 | 16.55974 | 632 ft | 1 kts | 124° |
| 2026-05-05 18:04 | 48.11869 | 16.55962 | 632 ft | 1 kts | 124° |
| 2026-05-05 18:04 | 48.11874 | 16.55949 | 630 ft | 2 kts | 124° |
| 2026-05-05 18:05 | 48.11884 | 16.55928 | 630 ft | 2 kts | 124° |
| 2026-05-05 18:05 | 48.11895 | 16.55908 | 630 ft | 2 kts | 175° |
| 2026-05-05 18:05 | 48.11902 | 16.55908 | 630 ft | 0 kts | 206° |
| 2026-05-05 18:07 | 48.11891 | 16.55900 | 615 ft | 4 kts | 206° |
| 2026-05-05 18:08 | 48.11867 | 16.55882 | 630 ft | 4 kts | 206° |
| 2026-05-05 18:08 | 48.11843 | 16.55864 | 628 ft | 4 kts | 206° |
| 2026-05-05 18:08 | 48.11825 | 16.55851 | 628 ft | 2 kts | 206° |
| 2026-05-05 18:08 | 48.11813 | 16.55842 | 630 ft | 2 kts | 206° |
| 2026-05-05 18:09 | 48.11786 | 16.55822 | 628 ft | 5 kts | 206° |
| 2026-05-05 18:09 | 48.11755 | 16.55799 | 626 ft | 5 kts | 206° |
| 2026-05-05 18:09 | 48.11729 | 16.55766 | 625 ft | 6 kts | 236° |
| 2026-05-05 18:09 | 48.11726 | 16.55698 | 626 ft | 7 kts | 283° |
| 2026-05-05 18:10 | 48.11751 | 16.55612 | 628 ft | 11 kts | 296° |
| 2026-05-05 18:10 | 48.11788 | 16.55500 | 623 ft | 13 kts | 296° |
| 2026-05-05 18:10 | 48.11828 | 16.55374 | 628 ft | 14 kts | 296° |
| 2026-05-05 18:10 | 48.11873 | 16.55237 | 628 ft | 15 kts | 296° |
| 2026-05-05 18:11 | 48.11921 | 16.55088 | 627 ft | 16 kts | 296° |
| 2026-05-05 18:11 | 48.11972 | 16.54933 | 626 ft | 17 kts | 296° |
| 2026-05-05 18:11 | 48.12023 | 16.54779 | 626 ft | 17 kts | 296° |
| 2026-05-05 18:11 | 48.12073 | 16.54624 | 621 ft | 17 kts | 295° |
| 2026-05-05 18:12 | 48.12123 | 16.54468 | 630 ft | 17 kts | 296° |
| 2026-05-05 18:12 | 48.12174 | 16.54313 | 623 ft | 17 kts | 296° |
| 2026-05-05 18:12 | 48.12225 | 16.54157 | 624 ft | 17 kts | 295° |
| 2026-05-05 18:12 | 48.12272 | 16.54009 | 627 ft | 15 kts | 295° |
| 2026-05-05 18:13 | 48.12316 | 16.53873 | 622 ft | 14 kts | 295° |
| 2026-05-05 18:13 | 48.12355 | 16.53753 | 624 ft | 12 kts | 296° |
| 2026-05-05 18:13 | 48.12383 | 16.53657 | 628 ft | 7 kts | 280° |
| 2026-05-05 18:13 | 48.12372 | 16.53600 | 625 ft | 4 kts | 236° |
| 2026-05-05 18:14 | 48.12341 | 16.53562 | 625 ft | 7 kts | 210° |
| 2026-05-05 18:14 | 48.12301 | 16.53534 | 624 ft | 5 kts | 204° |
| 2026-05-05 18:14 | 48.12276 | 16.53518 | 625 ft | 5 kts | 202° |
| 2026-05-05 18:14 | 48.12233 | 16.53511 | 628 ft | 6 kts | 161° |
| 2026-05-05 18:15 | 48.12207 | 16.53563 | 629 ft | 7 kts | 114° |
| 2026-05-05 18:15 | 48.12154 | 16.53728 | 627 ft | 39 kts | 116° |
| 2026-05-05 18:15 | 48.11918 | 16.54451 | 630 ft | 113 kts | 116° |
| 2026-05-05 18:15 | 48.11483 | 16.55806 | 636 ft | 169 kts | 114° |
| 2026-05-05 18:16 | 48.11024 | 16.57444 | 1104 ft | 175 kts | 120° |
| 2026-05-05 18:16 | 48.10549 | 16.59111 | 1886 ft | 171 kts | 119° |
| 2026-05-05 18:16 | 48.10081 | 16.60761 | 2522 ft | 175 kts | 125° |
| 2026-05-05 18:16 | 48.09525 | 16.62455 | 2910 ft | 189 kts | 127° |
| 2026-05-05 18:17 | 48.08786 | 16.64118 | 3172 ft | 196 kts | 144° |
| 2026-05-05 18:17 | 48.07639 | 16.65254 | 3536 ft | 200 kts | 162° |
| 2026-05-05 18:17 | 48.06287 | 16.65862 | 3905 ft | 213 kts | 174° |
| 2026-05-05 18:17 | 48.04751 | 16.65856 | 4248 ft | 225 kts | 196° |
| 2026-05-05 18:18 | 48.03369 | 16.64685 | 4756 ft | 236 kts | 226° |
| 2026-05-05 18:18 | 48.02513 | 16.62549 | 5365 ft | 247 kts | 248° |
| 2026-05-05 18:18 | 48.01970 | 16.60068 | 6049 ft | 253 kts | 249° |
| 2026-05-05 18:18 | 48.01411 | 16.57561 | 6829 ft | 253 kts | 246° |
| 2026-05-05 18:19 | 48.00770 | 16.55072 | 7421 ft | 262 kts | 245° |
| 2026-05-05 18:19 | 48.00089 | 16.52507 | 8076 ft | 268 kts | 245° |
| 2026-05-05 18:19 | 47.99393 | 16.49877 | 8705 ft | 275 kts | 246° |
| 2026-05-05 18:19 | 47.98701 | 16.47239 | 9640 ft | 270 kts | 246° |
| 2026-05-05 18:20 | 47.98025 | 16.44650 | 10388 ft | 269 kts | 246° |
| 2026-05-05 18:20 | 47.97329 | 16.41990 | 10922 ft | 282 kts | 246° |
| 2026-05-05 18:20 | 47.96594 | 16.39179 | 11329 ft | 300 kts | 247° |
| 2026-05-05 18:20 | 47.95813 | 16.36195 | 11740 ft | 319 kts | 246° |
| 2026-05-05 18:21 | 47.94980 | 16.33009 | 12106 ft | 341 kts | 247° |
| 2026-05-05 18:21 | 47.94096 | 16.29620 | 12555 ft | 358 kts | 247° |
| 2026-05-05 18:21 | 47.93193 | 16.26153 | 13623 ft | 356 kts | 247° |
| 2026-05-05 18:21 | 47.92304 | 16.22736 | 14724 ft | 354 kts | 247° |
| 2026-05-05 18:22 | 47.91392 | 16.19241 | 15212 ft | 370 kts | 247° |
| 2026-05-05 18:22 | 47.90451 | 16.15642 | 16010 ft | 374 kts | 247° |
| 2026-05-05 18:22 | 47.89499 | 16.12016 | 16876 ft | 378 kts | 247° |
| 2026-05-05 18:22 | 47.88550 | 16.08398 | 17745 ft | 381 kts | 247° |
| 2026-05-05 18:23 | 47.87579 | 16.04701 | 18592 ft | 382 kts | 247° |
| 2026-05-05 18:23 | 47.86608 | 16.01008 | 19486 ft | 384 kts | 247° |
| 2026-05-05 18:23 | 47.85619 | 15.97261 | 20163 ft | 388 kts | 247° |
| 2026-05-05 18:23 | 47.84623 | 15.93489 | 20813 ft | 395 kts | 247° |
| 2026-05-05 18:24 | 47.83621 | 15.89696 | 21745 ft | 393 kts | 247° |
| 2026-05-05 18:24 | 47.82604 | 15.85861 | 22230 ft | 404 kts | 247° |
| 2026-05-05 18:24 | 47.81563 | 15.81939 | 22888 ft | 408 kts | 247° |
| 2026-05-05 18:24 | 47.80524 | 15.78035 | 23832 ft | 403 kts | 247° |
| 2026-05-05 18:25 | 47.79485 | 15.74134 | 24346 ft | 410 kts | 246° |
| 2026-05-05 18:25 | 47.78784 | 15.71509 | 24662 ft | 413 kts | 247° |
| 2026-05-05 18:25 | 47.77380 | 15.66245 | 25740 ft | 410 kts | 246° |
| 2026-05-05 18:25 | 47.76326 | 15.62310 | 26063 ft | 419 kts | 246° |
| 2026-05-05 18:26 | 47.75248 | 15.58288 | 26772 ft | 418 kts | 246° |
| 2026-05-05 18:26 | 47.74156 | 15.54231 | 27041 ft | 428 kts | 246° |
| 2026-05-05 18:26 | 47.73051 | 15.50126 | 27817 ft | 425 kts | 246° |
| 2026-05-05 18:26 | 47.71944 | 15.46016 | 28151 ft | 434 kts | 246° |
| 2026-05-05 18:27 | 47.70806 | 15.41806 | 28462 ft | 440 kts | 246° |
| 2026-05-05 18:27 | 47.69663 | 15.37582 | 29088 ft | 441 kts | 246° |
| 2026-05-05 18:27 | 47.68508 | 15.33318 | 29379 ft | 448 kts | 246° |
| 2026-05-05 18:27 | 47.67340 | 15.29017 | 29857 ft | 450 kts | 246° |
| 2026-05-05 18:28 | 47.64961 | 15.20284 | 30246 ft | 463 kts | 246° |
| 2026-05-05 18:28 | 47.63762 | 15.15890 | 30450 ft | 467 kts | 246° |
| 2026-05-05 18:28 | 47.62538 | 15.11408 | 30764 ft | 468 kts | 247° |
| 2026-05-05 18:29 | 47.61312 | 15.06933 | 31175 ft | 467 kts | 247° |
| 2026-05-05 18:29 | 47.60088 | 15.02475 | 31628 ft | 465 kts | 247° |
| 2026-05-05 18:29 | 47.58869 | 14.98049 | 32069 ft | 464 kts | 247° |
| 2026-05-05 18:29 | 47.57649 | 14.93622 | 32495 ft | 462 kts | 247° |
| 2026-05-05 18:30 | 47.56510 | 14.89495 | 32886 ft | 461 kts | 247° |
| 2026-05-05 18:30 | 47.55313 | 14.85164 | 33317 ft | 460 kts | 247° |
| 2026-05-05 18:30 | 47.54098 | 14.80784 | 33776 ft | 458 kts | 247° |
| 2026-05-05 18:30 | 47.52885 | 14.76416 | 34112 ft | 457 kts | 247° |
| 2026-05-05 18:31 | 47.51679 | 14.72079 | 34409 ft | 457 kts | 247° |
| 2026-05-05 18:31 | 47.50470 | 14.67740 | 34741 ft | 456 kts | 248° |
| 2026-05-05 18:31 | 47.49264 | 14.63418 | 35065 ft | 454 kts | 247° |
| 2026-05-05 18:31 | 47.48061 | 14.59115 | 35380 ft | 453 kts | 247° |
| 2026-05-05 18:32 | 47.46854 | 14.54806 | 35672 ft | 452 kts | 247° |
| 2026-05-05 18:32 | 47.45649 | 14.50510 | 35788 ft | 454 kts | 247° |
| 2026-05-05 18:32 | 47.43238 | 14.41942 | 35837 ft | 453 kts | 247° |
| 2026-05-05 18:33 | 47.40819 | 14.33376 | 35848 ft | 451 kts | 247° |
| 2026-05-05 18:33 | 47.38398 | 14.24838 | 35853 ft | 451 kts | 247° |
| 2026-05-05 18:34 | 47.35971 | 14.16303 | 35855 ft | 451 kts | 247° |
| 2026-05-05 18:34 | 47.33533 | 14.07758 | 35864 ft | 452 kts | 247° |
| 2026-05-05 18:35 | 47.31086 | 13.99218 | 35862 ft | 452 kts | 247° |
| 2026-05-05 18:35 | 47.28649 | 13.90739 | 35861 ft | 452 kts | 247° |
| 2026-05-05 18:36 | 47.26193 | 13.82224 | 35884 ft | 452 kts | 246° |
| 2026-05-05 18:36 | 47.24141 | 13.75131 | 35895 ft | 452 kts | 246° |
| 2026-05-05 18:37 | 47.21671 | 13.66621 | 35892 ft | 452 kts | 246° |
| 2026-05-05 18:37 | 47.18792 | 13.56741 | 35895 ft | 452 kts | 246° |
| 2026-05-05 18:38 | 47.16716 | 13.49638 | 35912 ft | 452 kts | 246° |
| 2026-05-05 18:38 | 47.14229 | 13.41159 | 35914 ft | 451 kts | 246° |
| 2026-05-05 18:39 | 47.11755 | 13.32755 | 35917 ft | 451 kts | 246° |
| 2026-05-05 18:39 | 47.09269 | 13.24334 | 35927 ft | 449 kts | 246° |
| 2026-05-05 18:40 | 47.06781 | 13.15939 | 35937 ft | 449 kts | 246° |
| 2026-05-05 18:40 | 47.04288 | 13.07555 | 35942 ft | 447 kts | 245° |
| 2026-05-05 18:41 | 47.01795 | 12.99198 | 35936 ft | 447 kts | 245° |
| 2026-05-05 18:41 | 46.99297 | 12.90851 | 35944 ft | 446 kts | 245° |
| 2026-05-05 18:42 | 46.96813 | 12.82584 | 35923 ft | 446 kts | 245° |
| 2026-05-05 18:42 | 46.94305 | 12.74260 | 35957 ft | 445 kts | 245° |
| 2026-05-05 18:43 | 46.91801 | 12.65978 | 35953 ft | 446 kts | 245° |
| 2026-05-05 18:43 | 46.89299 | 12.57734 | 35963 ft | 446 kts | 245° |
| 2026-05-05 18:44 | 46.86783 | 12.49461 | 35985 ft | 445 kts | 245° |
| 2026-05-05 18:44 | 46.84256 | 12.41182 | 35997 ft | 446 kts | 245° |
| 2026-05-05 18:45 | 46.81732 | 12.32941 | 36017 ft | 446 kts | 245° |
| 2026-05-05 18:45 | 46.79155 | 12.24706 | 36030 ft | 445 kts | 243° |
| 2026-05-05 18:46 | 46.76337 | 12.16657 | 36016 ft | 444 kts | 242° |
| 2026-05-05 18:46 | 46.73489 | 12.08661 | 36013 ft | 444 kts | 242° |
| 2026-05-05 18:47 | 46.70686 | 12.00699 | 35998 ft | 444 kts | 242° |
| 2026-05-05 18:47 | 46.67877 | 11.92687 | 35982 ft | 443 kts | 242° |
| 2026-05-05 18:48 | 46.65068 | 11.84698 | 35968 ft | 443 kts | 242° |
| 2026-05-05 18:48 | 46.62256 | 11.76729 | 35964 ft | 443 kts | 242° |
| 2026-05-05 18:49 | 46.59442 | 11.68783 | 35953 ft | 442 kts | 242° |
| 2026-05-05 18:49 | 46.56619 | 11.60841 | 35940 ft | 441 kts | 242° |
| 2026-05-05 18:50 | 46.53813 | 11.52963 | 35947 ft | 441 kts | 242° |
| 2026-05-05 18:50 | 46.50991 | 11.45057 | 35937 ft | 440 kts | 241° |
| 2026-05-05 18:51 | 46.48241 | 11.37125 | 35952 ft | 440 kts | 247° |
| 2026-05-05 18:51 | 46.46711 | 11.28576 | 35938 ft | 442 kts | 258° |
| 2026-05-05 18:52 | 46.46454 | 11.19636 | 35945 ft | 444 kts | 268° |
| 2026-05-05 18:52 | 46.46653 | 11.10651 | 36015 ft | 446 kts | 268° |
| 2026-05-05 18:53 | 46.46841 | 11.01650 | 36010 ft | 446 kts | 268° |
| 2026-05-05 18:53 | 46.46983 | 10.92666 | 36001 ft | 445 kts | 267° |
| 2026-05-05 18:54 | 46.47100 | 10.83754 | 35991 ft | 445 kts | 267° |
| 2026-05-05 18:54 | 46.47208 | 10.74786 | 35996 ft | 444 kts | 267° |
| 2026-05-05 18:55 | 46.47311 | 10.65815 | 35977 ft | 444 kts | 267° |
| 2026-05-05 18:55 | 46.47407 | 10.56858 | 35965 ft | 443 kts | 267° |
| 2026-05-05 18:56 | 46.47496 | 10.47888 | 35963 ft | 445 kts | 266° |
| 2026-05-05 18:56 | 46.47580 | 10.38927 | 35970 ft | 444 kts | 266° |
| 2026-05-05 18:57 | 46.47656 | 10.30018 | 35958 ft | 442 kts | 266° |
| 2026-05-05 18:57 | 46.47724 | 10.21103 | 35968 ft | 443 kts | 266° |
| 2026-05-05 18:58 | 46.47789 | 10.12151 | 35967 ft | 443 kts | 267° |
| 2026-05-05 18:58 | 46.48833 | 10.03265 | 35987 ft | 453 kts | 282° |
| 2026-05-05 18:59 | 46.51326 | 9.94777 | 35968 ft | 463 kts | 293° |
| 2026-05-05 18:59 | 46.54542 | 9.86655 | 35980 ft | 463 kts | 294° |
| 2026-05-05 19:00 | 46.57638 | 9.78527 | 35966 ft | 460 kts | 290° |
| 2026-05-05 19:00 | 46.59590 | 9.69835 | 35955 ft | 449 kts | 276° |
| 2026-05-05 19:01 | 46.60122 | 9.60870 | 35963 ft | 444 kts | 266° |
| 2026-05-05 19:01 | 46.60156 | 9.51952 | 35949 ft | 443 kts | 266° |
| 2026-05-05 19:02 | 46.60197 | 9.42995 | 35929 ft | 443 kts | 266° |
| 2026-05-05 19:02 | 46.60271 | 9.34025 | 35918 ft | 443 kts | 266° |
| 2026-05-05 19:03 | 46.60347 | 9.25051 | 35926 ft | 444 kts | 266° |
| 2026-05-05 19:03 | 46.60415 | 9.16074 | 35930 ft | 444 kts | 266° |
| 2026-05-05 19:04 | 46.60475 | 9.07090 | 35956 ft | 445 kts | 266° |
| 2026-05-05 19:04 | 46.60530 | 8.98088 | 35963 ft | 445 kts | 266° |
| 2026-05-05 19:05 | 46.60577 | 8.89139 | 35970 ft | 445 kts | 266° |
| 2026-05-05 19:05 | 46.60617 | 8.80125 | 35981 ft | 445 kts | 266° |
| 2026-05-05 19:06 | 46.60644 | 8.71126 | 35971 ft | 445 kts | 266° |
| 2026-05-05 19:06 | 46.60680 | 8.62113 | 35968 ft | 446 kts | 268° |
| 2026-05-05 19:07 | 46.61418 | 8.53107 | 35974 ft | 452 kts | 276° |
| 2026-05-05 19:07 | 46.62629 | 8.44114 | 35946 ft | 453 kts | 276° |
| 2026-05-05 19:08 | 46.63810 | 8.35169 | 35941 ft | 453 kts | 276° |
| 2026-05-05 19:08 | 46.64971 | 8.26152 | 35935 ft | 455 kts | 276° |
| 2026-05-05 19:09 | 46.66124 | 8.17106 | 35908 ft | 453 kts | 276° |
| 2026-05-05 19:09 | 46.67263 | 8.08100 | 35914 ft | 453 kts | 276° |
| 2026-05-05 19:10 | 46.68404 | 7.99040 | 35923 ft | 455 kts | 276° |
| 2026-05-05 19:10 | 46.69540 | 7.89963 | 35922 ft | 456 kts | 276° |
| 2026-05-05 19:11 | 46.70665 | 7.80907 | 35931 ft | 457 kts | 276° |
| 2026-05-05 19:11 | 46.71792 | 7.71773 | 35924 ft | 458 kts | 276° |
| 2026-05-05 19:12 | 46.72914 | 7.62607 | 35817 ft | 460 kts | 276° |
| 2026-05-05 19:12 | 46.73475 | 7.58017 | 35315 ft | 459 kts | 276° |
| 2026-05-05 19:12 | 46.74031 | 7.53452 | 34836 ft | 456 kts | 276° |
| 2026-05-05 19:13 | 46.74582 | 7.48909 | 34382 ft | 454 kts | 276° |
| 2026-05-05 19:13 | 46.75131 | 7.44361 | 33922 ft | 454 kts | 275° |
| 2026-05-05 19:13 | 46.75676 | 7.39821 | 33380 ft | 455 kts | 275° |
| 2026-05-05 19:13 | 46.76214 | 7.35325 | 32869 ft | 457 kts | 275° |
| 2026-05-05 19:14 | 46.76762 | 7.30740 | 32368 ft | 459 kts | 275° |
| 2026-05-05 19:14 | 46.77310 | 7.26139 | 31847 ft | 460 kts | 275° |
| 2026-05-05 19:14 | 46.77856 | 7.21534 | 31347 ft | 462 kts | 275° |
| 2026-05-05 19:14 | 46.78403 | 7.16897 | 30855 ft | 463 kts | 276° |
| 2026-05-05 19:15 | 46.78947 | 7.12282 | 30366 ft | 461 kts | 276° |
| 2026-05-05 19:15 | 46.79443 | 7.07688 | 29848 ft | 454 kts | 270° |
| 2026-05-05 19:15 | 46.79271 | 7.03160 | 29252 ft | 444 kts | 255° |
| 2026-05-05 19:15 | 46.78343 | 6.98903 | 28717 ft | 436 kts | 244° |
| 2026-05-05 19:16 | 46.76860 | 6.95099 | 28156 ft | 428 kts | 231° |
| 2026-05-05 19:16 | 46.74965 | 6.91770 | 27639 ft | 425 kts | 228° |
| 2026-05-05 19:16 | 46.73086 | 6.88526 | 27117 ft | 424 kts | 229° |
| 2026-05-05 19:16 | 46.71209 | 6.85225 | 26596 ft | 422 kts | 229° |
| 2026-05-05 19:17 | 46.69360 | 6.81914 | 26082 ft | 419 kts | 229° |
| 2026-05-05 19:17 | 46.67531 | 6.78621 | 25590 ft | 417 kts | 229° |
| 2026-05-05 19:17 | 46.65762 | 6.75287 | 25104 ft | 415 kts | 233° |
| 2026-05-05 19:17 | 46.64213 | 6.71747 | 24601 ft | 414 kts | 238° |
| 2026-05-05 19:18 | 46.62779 | 6.68117 | 24130 ft | 413 kts | 238° |
| 2026-05-05 19:18 | 46.61346 | 6.64499 | 23648 ft | 411 kts | 238° |
| 2026-05-05 19:18 | 46.59912 | 6.60900 | 23153 ft | 409 kts | 238° |
| 2026-05-05 19:18 | 46.58489 | 6.57342 | 22605 ft | 405 kts | 238° |
| 2026-05-05 19:19 | 46.57080 | 6.53830 | 22242 ft | 396 kts | 238° |
| 2026-05-05 19:19 | 46.55710 | 6.50420 | 21998 ft | 386 kts | 237° |
| 2026-05-05 19:19 | 46.54387 | 6.47137 | 21737 ft | 377 kts | 237° |
| 2026-05-05 19:19 | 46.53076 | 6.43887 | 21489 ft | 368 kts | 237° |
| 2026-05-05 19:20 | 46.51797 | 6.40725 | 21242 ft | 359 kts | 237° |
| 2026-05-05 19:20 | 46.50543 | 6.37627 | 20997 ft | 352 kts | 237° |
| 2026-05-05 19:20 | 46.49318 | 6.34603 | 20748 ft | 344 kts | 237° |
| 2026-05-05 19:20 | 46.48116 | 6.31639 | 20505 ft | 337 kts | 237° |
| 2026-05-05 19:21 | 46.47021 | 6.28686 | 20246 ft | 329 kts | 247° |
| 2026-05-05 19:21 | 46.46563 | 6.25451 | 20014 ft | 328 kts | 266° |
| 2026-05-05 19:21 | 46.46936 | 6.22197 | 19769 ft | 330 kts | 288° |
| 2026-05-05 19:21 | 46.48126 | 6.19397 | 19535 ft | 334 kts | 310° |
| 2026-05-05 19:22 | 46.49990 | 6.17366 | 19334 ft | 339 kts | 327° |
| 2026-05-05 19:22 | 46.52104 | 6.15815 | 19142 ft | 341 kts | 331° |
| 2026-05-05 19:22 | 46.54193 | 6.14234 | 18893 ft | 335 kts | 319° |
| 2026-05-05 19:22 | 46.55743 | 6.11802 | 18674 ft | 325 kts | 295° |
| 2026-05-05 19:23 | 46.56471 | 6.08770 | 18451 ft | 315 kts | 272° |
| 2026-05-05 19:23 | 46.56289 | 6.05658 | 18251 ft | 307 kts | 249° |
| 2026-05-05 19:23 | 46.55443 | 6.02821 | 18045 ft | 305 kts | 240° |
| 2026-05-05 19:23 | 46.54319 | 6.00218 | 17794 ft | 303 kts | 232° |
| 2026-05-05 19:24 | 46.53005 | 5.97831 | 17560 ft | 302 kts | 229° |
| 2026-05-05 19:24 | 46.51666 | 5.95526 | 17332 ft | 301 kts | 229° |
| 2026-05-05 19:24 | 46.50307 | 5.93208 | 17082 ft | 300 kts | 229° |
| 2026-05-05 19:24 | 46.48959 | 5.90904 | 16845 ft | 299 kts | 229° |
| 2026-05-05 19:25 | 46.47617 | 5.88601 | 16608 ft | 298 kts | 229° |
| 2026-05-05 19:25 | 46.46284 | 5.86301 | 16364 ft | 297 kts | 229° |
| 2026-05-05 19:25 | 46.44956 | 5.84007 | 16145 ft | 297 kts | 229° |
| 2026-05-05 19:25 | 46.43634 | 5.81717 | 15988 ft | 294 kts | 229° |
| 2026-05-05 19:26 | 46.42765 | 5.80210 | 15969 ft | 293 kts | 229° |
| 2026-05-05 19:26 | 46.41449 | 5.77929 | 15912 ft | 294 kts | 229° |
| 2026-05-05 19:26 | 46.39715 | 5.74924 | 15598 ft | 293 kts | 229° |
| 2026-05-05 19:26 | 46.38831 | 5.73392 | 15368 ft | 292 kts | 229° |
| 2026-05-05 19:27 | 46.37546 | 5.71166 | 15019 ft | 291 kts | 229° |
| 2026-05-05 19:27 | 46.36250 | 5.68922 | 14657 ft | 290 kts | 229° |
| 2026-05-05 19:27 | 46.34957 | 5.66687 | 14299 ft | 288 kts | 229° |
| 2026-05-05 19:27 | 46.33668 | 5.64459 | 13967 ft | 287 kts | 230° |
| 2026-05-05 19:28 | 46.32387 | 5.62246 | 13634 ft | 285 kts | 230° |
| 2026-05-05 19:28 | 46.31114 | 5.60049 | 13287 ft | 284 kts | 229° |
| 2026-05-05 19:28 | 46.29846 | 5.57863 | 12906 ft | 283 kts | 229° |
| 2026-05-05 19:28 | 46.28583 | 5.55687 | 12570 ft | 281 kts | 229° |
| 2026-05-05 19:29 | 46.27342 | 5.53551 | 12233 ft | 280 kts | 229° |
| 2026-05-05 19:29 | 46.26095 | 5.51404 | 11888 ft | 279 kts | 229° |
| 2026-05-05 19:29 | 46.24835 | 5.49238 | 11546 ft | 277 kts | 229° |
| 2026-05-05 19:29 | 46.23596 | 5.47109 | 11206 ft | 276 kts | 229° |
| 2026-05-05 19:30 | 46.22379 | 5.45018 | 10886 ft | 275 kts | 229° |
| 2026-05-05 19:30 | 46.21118 | 5.42949 | 10527 ft | 274 kts | 225° |
| 2026-05-05 19:30 | 46.19721 | 5.41086 | 10207 ft | 273 kts | 221° |
| 2026-05-05 19:30 | 46.18289 | 5.39291 | 9889 ft | 272 kts | 221° |
| 2026-05-05 19:31 | 46.16861 | 5.37509 | 9558 ft | 271 kts | 221° |
| 2026-05-05 19:31 | 46.15445 | 5.35729 | 9192 ft | 270 kts | 221° |
| 2026-05-05 19:31 | 46.14034 | 5.33944 | 8862 ft | 269 kts | 221° |
| 2026-05-05 19:31 | 46.12636 | 5.32167 | 8536 ft | 267 kts | 221° |
| 2026-05-05 19:32 | 46.11246 | 5.30392 | 8216 ft | 266 kts | 221° |
| 2026-05-05 19:32 | 46.09860 | 5.28619 | 7884 ft | 265 kts | 221° |
| 2026-05-05 19:32 | 46.08480 | 5.26854 | 7553 ft | 264 kts | 221° |
| 2026-05-05 19:32 | 46.07124 | 5.25116 | 7239 ft | 264 kts | 222° |
| 2026-05-05 19:33 | 46.05755 | 5.23364 | 6915 ft | 263 kts | 222° |
| 2026-05-05 19:33 | 46.04387 | 5.21611 | 6602 ft | 262 kts | 222° |
| 2026-05-05 19:33 | 46.03028 | 5.19872 | 6296 ft | 261 kts | 221° |
| 2026-05-05 19:33 | 46.01671 | 5.18135 | 5970 ft | 261 kts | 221° |
| 2026-05-05 19:34 | 46.00320 | 5.16408 | 5695 ft | 257 kts | 221° |
| 2026-05-05 19:34 | 45.99017 | 5.14742 | 5371 ft | 243 kts | 222° |
| 2026-05-05 19:34 | 45.97791 | 5.13176 | 5007 ft | 229 kts | 221° |
| 2026-05-05 19:35 | 45.95456 | 5.10198 | 4465 ft | 220 kts | 221° |
| 2026-05-05 19:35 | 45.94329 | 5.08763 | 4290 ft | 211 kts | 221° |
| 2026-05-05 19:35 | 45.93202 | 5.07556 | 4092 ft | 203 kts | 202° |
| 2026-05-05 19:35 | 45.91848 | 5.07291 | 3929 ft | 189 kts | 183° |
| 2026-05-05 19:36 | 45.90552 | 5.07234 | 3789 ft | 185 kts | 182° |
| 2026-05-05 19:36 | 45.89264 | 5.07276 | 3603 ft | 184 kts | 179° |
| 2026-05-05 19:36 | 45.87989 | 5.07405 | 3426 ft | 183 kts | 177° |
| 2026-05-05 19:36 | 45.86740 | 5.07558 | 3254 ft | 175 kts | 177° |
| 2026-05-05 19:37 | 45.85587 | 5.07701 | 3122 ft | 161 kts | 177° |
| 2026-05-05 19:37 | 45.84499 | 5.07835 | 2964 ft | 159 kts | 177° |
| 2026-05-05 19:37 | 45.83409 | 5.07968 | 2775 ft | 157 kts | 177° |
| 2026-05-05 19:37 | 45.82320 | 5.08101 | 2557 ft | 156 kts | 177° |
| 2026-05-05 19:38 | 45.81243 | 5.08233 | 2354 ft | 154 kts | 176° |
| 2026-05-05 19:38 | 45.80175 | 5.08363 | 2140 ft | 154 kts | 176° |
| 2026-05-05 19:38 | 45.79124 | 5.08492 | 1924 ft | 152 kts | 176° |
| 2026-05-05 19:38 | 45.78078 | 5.08619 | 1723 ft | 152 kts | 175° |
| 2026-05-05 19:39 | 45.77021 | 5.08751 | 1479 ft | 153 kts | 175° |
| 2026-05-05 19:39 | 45.75968 | 5.08890 | 1308 ft | 151 kts | 174° |
| 2026-05-05 19:39 | 45.74917 | 5.09025 | 1115 ft | 152 kts | 175° |
| 2026-05-05 19:39 | 45.73870 | 5.09147 | 908 ft | 148 kts | 175° |
| 2026-05-05 19:40 | 45.72891 | 5.09265 | 807 ft | 130 kts | 175° |
| 2026-05-05 19:40 | 45.72174 | 5.09351 | 819 ft | 74 kts | 175° |
| 2026-05-05 19:40 | 45.71835 | 5.09361 | 826 ft | 35 kts | 192° |
| 2026-05-05 19:40 | 45.71703 | 5.09293 | 826 ft | 10 kts | 205° |
| 2026-05-05 19:41 | 45.71643 | 5.09226 | 819 ft | 12 kts | 240° |
| 2026-05-05 19:41 | 45.71633 | 5.09116 | 819 ft | 8 kts | 265° |
| 2026-05-05 19:41 | 45.71628 | 5.09036 | 819 ft | 8 kts | 265° |
| 2026-05-05 19:41 | 45.71621 | 5.08956 | 818 ft | 8 kts | 262° |
| 2026-05-05 19:42 | 45.71616 | 5.08876 | 818 ft | 8 kts | 265° |
| 2026-05-05 19:42 | 45.71611 | 5.08792 | 812 ft | 9 kts | 265° |
| 2026-05-05 19:42 | 45.71606 | 5.08716 | 813 ft | 8 kts | 263° |
| 2026-05-05 19:42 | 45.71599 | 5.08627 | 810 ft | 10 kts | 263° |
| 2026-05-05 19:43 | 45.71607 | 5.08525 | 808 ft | 11 kts | 298° |
| 2026-05-05 19:43 | 45.71680 | 5.08495 | 807 ft | 11 kts | 355° |
| 2026-05-05 19:43 | 45.71755 | 5.08486 | 807 ft | 11 kts | 355° |
| 2026-05-05 19:43 | 45.71831 | 5.08477 | 807 ft | 11 kts | 355° |
| 2026-05-05 19:44 | 45.71907 | 5.08468 | 807 ft | 11 kts | 355° |
| 2026-05-05 19:44 | 45.71983 | 5.08459 | 807 ft | 11 kts | 355° |
| 2026-05-05 19:44 | 45.72058 | 5.08449 | 807 ft | 11 kts | 355° |
| 2026-05-05 19:44 | 45.72134 | 5.08440 | 807 ft | 11 kts | 355° |
| 2026-05-05 19:45 | 45.72202 | 5.08432 | 805 ft | 7 kts | 355° |
| 2026-05-05 19:45 | 45.72252 | 5.08411 | 804 ft | 8 kts | 322° |
| 2026-05-05 19:45 | 45.72255 | 5.08339 | 803 ft | 7 kts | 231° |
| 2026-05-05 19:45 | 45.72206 | 5.08320 | 803 ft | 8 kts | 179° |
| 2026-05-05 19:46 | 45.72169 | 5.08283 | 802 ft | 8 kts | 264° |
| 2026-05-05 19:46 | 45.72187 | 5.08233 | 801 ft | 6 kts | 304° |
| 2026-05-05 19:46 | 45.72195 | 5.08215 | 801 ft | 0 kts | 305° |